Station info - map view · info · telemetry · weather · raw · status · beacons · messages · bulletins · browse · moving · my account
Callsign, ship name or locator: Clear       
It is possible to search using wildcards (*?) after a prefix. Example: OH*
APRS station OE3FRE-9 - show graphs
Map loading...
Comment: Batt=4.22V SNR=+1dB RSSI=-83db
Location: 48°04.67' N 16°18.47' E - locator JN88DB68WQ - show map - static map
0.4 miles Southwest bearing 219° from Wiener Neudorf, Politischer Bezirk Mödling, Lower Austria, Austria [?]
1.0 miles North bearing 339° from Neu-Guntramsdorf, Lower Austria, Austria
9.5 miles South bearing 198° from Vienna, Politischer Bezirk Wien (Stadt), Vienna, Austria
37.1 miles West bearing 263° from Bratislava, Bratislavský, Slovakia
Last position: 2020-01-23 11:17:52 EST (1h25m ago)
2020-01-23 17:17:52 CET local time at Wiener Neudorf, Austria [?]
Altitude: 688 ft
Course: 183°
Speed: 3 MPH
Device: Unknown: Unknown
Last path: OE3FRE-9>APRS via qAS,OE3FRE-10
Positions stored: 18762
Packet rate: 3 seconds between packets on average during 143 seconds.
This station is transmitting packets at a very high rate, which causes serious congestion in the APRS network. This could be considered an abuse of the network resources.
Other SSIDs: OE3FRE OE3FRE-1 OE3FRE-10 OE3FRE-11 OE3FRE-12 OE3FRE-13 OE3FRE-14 OE3FRE-15 OE3FRE-2 OE3FRE-3 OE3FRE-4 OE3FRE-5 OE3FRE-6 OE3FRE-7 OE3FRE-DP OE3FRE-N
Stations near current position of OE3FRE-9 - show more
callsign distance last heard - EST      callsign distance last heard - EST
OE3FRE-1013.0 yards 270°2020-01-23 12:18:39 OE3FRE-640.1 yards 180°2020-01-19 07:19:33
OE3FRE-1162.1 yards 192°2020-01-23 12:36:12 OE3DBW-120.6 miles 359°2020-01-23 11:57:16
OE3RVU-90.7 miles 333°2020-01-23 12:42:32 OE3KLU-170.7 miles 333°2020-01-23 12:42:40
ADL 3030.7 miles 342°2020-01-23 12:19:45 OE1ACM-80.7 miles 343°2020-01-16 13:09:04
HQ OEVSV1.2 miles 99°2020-01-23 12:20:05 OE1IAH-91.3 miles 99°2020-01-11 10:46:22
OE3HOI-51.3 miles 100°2020-01-11 10:56:49 OE3HRE-91.3 miles 95°2020-01-11 11:49:12
OE1EQW-91.3 miles 99°2020-01-11 11:27:14 OE3RVU-121.4 miles 313°2020-01-23 12:21:23
OE3RVU-101.4 miles 313°2020-01-18 12:52:00 OE3HOI-72.1 miles 167°2020-01-23 03:26:44
OE3CRW-52.3 miles 334°2020-01-16 14:08:39 OE3CGG-72.3 miles 342°2020-01-19 09:45:52
OE1EQW-72.4 miles 14°2020-01-23 12:08:03 OE3PTA-73.0 miles 357°2020-01-11 03:30:51
Stations which heard OE3FRE-9 directly on radio –
callsign pkts first heard - EST last heard longest (tx => rx) longest at - EST
OE1XQR 9 2020-01-19 07:00:20 2020-01-19 07:13:57 JN87EV > JN88EE 18.4 miles 356° 2020-01-19 07:00:20
OE6XTR 14 2020-01-01 08:32:20 2020-01-19 07:11:41 JN88EB > JN77VN 41.6 miles 218° 2020-01-19 07:11:41
HG1PNY-1 3 2020-01-19 06:33:50 2020-01-19 06:37:21 JN87EP > JN87TN 60.1 miles 94° 2020-01-19 06:37:21
OE1SSU-10 1 2020-01-19 07:10:40 2020-01-19 07:10:40 JN88EA > JN88DD 7.5 miles 342° 2020-01-19 07:10:40
HG2PKB-1 3 2020-01-19 06:25:35 2020-01-19 06:35:54 JN87EP > JN87TB 71.9 miles 124° 2020-01-19 06:35:54
OE1XDS-10 1 2020-01-19 07:18:34 2020-01-19 07:18:34 JN88DB > JN88EF 10.1 miles 10° 2020-01-19 07:18:34
OE3XIA-10 4 2020-01-19 06:42:22 2020-01-19 07:18:08 JN87ER > JN88CF 37.5 miles 350° 2020-01-19 06:42:22
OE3XTR-2 2 2020-01-19 06:57:18 2020-01-19 07:04:19 JN87FU > JN87AT 18.2 miles 262° 2020-01-19 06:57:18
OE1IWA-11 7 2020-01-19 07:06:10 2020-01-19 07:17:07 JN87EX > JN88ED 10.9 miles 353° 2020-01-19 07:06:10
OE3PAS-15 7 2020-01-19 07:01:26 2020-01-19 07:17:11 JN88EB > JN87DX 6.9 miles 197° 2020-01-19 07:13:41
OE6XBF-11 1 2020-01-19 06:25:31 2020-01-19 06:25:31 JN87FM > JN76XU 52.2 miles 210° 2020-01-19 06:25:31
OE4WUW-5 4 2020-01-19 06:39:56 2020-01-19 07:01:19 JN87EQ > JN87EU 12.0 miles 1° 2020-01-19 06:39:56
OE1XBR-10 135 2020-01-19 07:43:06 2020-01-23 11:17:46 JN88DB > JN88FE 9.3 miles 39° 2020-01-20 10:12:43
OE4DNS 9 2020-01-20 10:05:56 2020-01-23 11:09:12 JN88DC > JN87LV 31.1 miles 116° 2020-01-23 11:09:12
OE1XJW-10 12 2020-01-19 06:37:50 2020-01-19 07:17:34 JN87EP > JN88EG 42.4 miles 2° 2020-01-19 06:37:50
OE3XLU-12 255 2020-01-19 07:43:06 2020-01-23 11:17:45 JN88GD > JN88CC 13.9 miles 259° 2020-01-23 09:34:43
OE3XKR-12 12 2020-01-20 09:50:39 2020-01-23 11:11:38 JN88DB > JN88EN 34.4 miles 6° 2020-01-20 12:34:15
OE3XMC-11 5 2020-01-20 01:40:00 2020-01-20 10:00:40 JN88EC > JN88FD 4.7 miles 51° 2020-01-20 01:40:00
OE3RVU-12 177 2020-01-16 14:47:09 2020-01-23 11:17:46 JN78TF > JN88DC 30.1 miles 108° 2020-01-16 15:14:08
OE3ELJ-10 27 2020-01-19 07:44:07 2020-01-23 11:16:24 JN88GD > JN87CW 19.1 miles 224° 2020-01-20 01:52:47
OE1PYW-11 5 2020-01-20 01:38:59 2020-01-20 01:53:02 JN88GD > JN88BE 20.2 miles 280° 2020-01-20 01:53:02
OE1ACM-27 3 2020-01-20 01:42:41 2020-01-20 09:50:29 JN88GD > JN88FF 7.0 miles 328° 2020-01-20 01:52:57
OE3XIA-12 43 2020-01-20 01:34:51 2020-01-23 11:15:56 JN88GD > JN88CF 15.8 miles 301° 2020-01-20 01:53:08
OE4KOB-12 1 2020-01-20 10:03:43 2020-01-20 10:03:43 JN88DC > JN87IT 25.6 miles 141° 2020-01-20 10:03:43
OE3DMB-12 123 2020-01-20 01:24:05 2020-01-23 11:17:45 JN88GD > JN88EA 10.0 miles 224° 2020-01-20 09:50:29
OE1ROT-10 14 2020-01-20 01:46:11 2020-01-22 10:43:59 JN88GD > JN88FD 3.6 miles 297° 2020-01-20 01:53:08
OE1SCS-14 1 2020-01-20 01:52:57 2020-01-20 01:52:57 JN88GD > JN88EE 8.0 miles 301° 2020-01-20 01:52:57
OE4ENU-2 7 2020-01-01 08:32:19 2020-01-19 06:53:02 JN87GK > JN87FU 27.1 miles 356° 2020-01-01 08:32:19
OE3FSS-10 7 2020-01-20 01:41:45 2020-01-23 11:13:28 JN88DB > JN88IJ 29.0 miles 42° 2020-01-20 12:34:15
OE1XUR-10 5 2020-01-19 06:35:51 2020-01-19 07:16:33 JN87EP > JN88ED 36.4 miles 1° 2020-01-19 06:35:51
OE1XUR 20 2020-01-19 06:34:51 2020-01-19 07:18:52 JN87EO > JN88ED 37.4 miles 0° 2020-01-19 06:34:51
OE3XMC-14 28 2020-01-20 01:41:00 2020-01-23 01:50:31 JN88EC > JN88FD 3.9 miles 48° 2020-01-20 01:41:00
OE1XAW-10 27 2020-01-20 01:42:50 2020-01-23 11:16:02 JN88DB > JN88EE 8.1 miles 27° 2020-01-23 11:16:02
OE3XFW-11 6 2020-01-20 01:47:58 2020-01-20 09:54:44 JN88GD > JN78XD 25.2 miles 272° 2020-01-20 09:50:40
OE4SLC-2 4 2020-01-19 06:51:54 2020-01-19 06:55:01 JN87FT > JN87GS 6.8 miles 145° 2020-01-19 06:55:01
OE3FRE-10 177 2020-01-22 11:51:18 2020-01-23 11:17:46 JN88DC > JN88DB 1.5 miles 186° 2020-01-23 11:07:54
OE3FRE-11 118 2020-01-22 13:11:05 2020-01-23 11:17:46 JN88DC > JN88DB 1.6 miles 204° 2020-01-23 09:49:23

Only position packets which were originated by the station are shown here. The range statistics show some extra long hops, because some digipeaters do not correctly add themselves to the digipeater path. Please check the raw packets.
About this site
This page shows real-time information collected from the Automatic Position Reporting System Internet network (APRS-IS). APRS is used by amateur (ham) radio operators to transmit real-time position information, weather data, telemetry and messages over the radio. A vehicle equipped with a GPS receiver, a VHF transmitter or HF transceiver and a small computer device called a tracker transmits it's location, speed and course in a small data packet, which is then received by a nearby iGate receiving site which forwards the packet on the Internet. Systems connected to the Internet can send information on the APRS-IS without a radio transmitter, or collect and display information transmitted anywhere in the world.
User guide · FAQ · Blog · Discussion group · Linking to aprs.fi · AIS sites · Service status · Database statistics · Advertising on aprs.fi · Technical details · API · Change log · Planned changes · Credits and thanks · Terms Of Service · iPhone/iPad APRS